Time;durP1;ratioP1;P1;durP2;ratioP2;P2;SDS_P1;SDS_P2;PMS_P1;PMS_P2;Temp;Humidity;BMP_temperature;BMP_pressure;BME280_temperature;BME280_humidity;BME280_pressure;Samples;Min_cycle;Max_cycle;Signal;HPM_P1;HPM_P2
2021/06/22 00:00:35;;;;;;;10.57;5.90;;;13.60;99.90;;;;;;6137701;23;20234;-71
2021/06/22 00:03:00;;;;;;;18.60;7.65;;;13.40;99.90;;;;;;6151161;23;20176;-71
2021/06/22 00:05:27;;;;;;;13.03;7.40;;;13.30;99.90;;;;;;6137377;23;20178;-71
2021/06/22 00:07:55;;;;;;;11.10;6.80;;;13.30;99.90;;;;;;6137292;23;20155;-72
2021/06/22 00:10:24;;;;;;;10.27;6.63;;;13.20;99.90;;;;;;6137319;23;20147;-71
2021/06/22 00:12:50;;;;;;;8.75;6.30;;;13.10;99.90;;;;;;6151075;23;20234;-71
2021/06/22 00:15:17;;;;;;;13.85;6.95;;;13.00;99.90;;;;;;6137454;23;20169;-71
2021/06/22 00:17:44;;;;;;;8.32;6.28;;;13.00;99.90;;;;;;6127370;23;20167;-70
2021/06/22 00:20:11;;;;;;;9.40;5.97;;;12.90;99.90;;;;;;6137284;23;20166;-70
2021/06/22 00:22:38;;;;;;;10.70;6.43;;;13.00;99.90;;;;;;6137733;23;20162;-71
2021/06/22 00:25:06;;;;;;;12.48;6.55;;;13.00;99.90;;;;;;6137096;23;20248;-71
2021/06/22 00:27:32;;;;;;;16.73;6.78;;;13.30;99.90;;;;;;6137259;23;20190;-71
2021/06/22 00:29:58;;;;;;;14.13;6.20;;;13.30;99.90;;;;;;6150649;23;20219;-71
2021/06/22 00:32:24;;;;;;;12.70;6.20;;;13.30;99.90;;;;;;6137303;23;20449;-72
2021/06/22 00:34:49;;;;;;;8.80;6.35;;;13.30;99.90;;;;;;6150900;23;20402;-71
2021/06/22 00:37:17;;;;;;;10.43;6.30;;;13.20;99.90;;;;;;6137079;23;20629;-71
2021/06/22 00:39:43;;;;;;;11.40;7.00;;;13.30;99.90;;;;;;6137342;23;20214;-71
2021/06/22 00:42:09;;;;;;;12.52;7.65;;;13.50;99.90;;;;;;6150841;23;20471;-72
2021/06/22 00:44:45;;;;;;;15.48;6.97;;;13.50;99.90;;;;;;6150746;23;20166;-71
2021/06/22 00:47:11;;;;;;;17.77;8.80;;;13.40;99.90;;;;;;6126057;23;20169;-72
2021/06/22 00:49:36;;;;;;;15.33;6.70;;;13.40;99.90;;;;;;6150616;23;20179;-71
2021/06/22 00:52:02;;;;;;;11.03;5.90;;;13.40;99.90;;;;;;6137099;23;20387;-71
2021/06/22 00:54:28;;;;;;;11.40;6.97;;;13.40;99.90;;;;;;6150776;23;20165;-71
2021/06/22 00:56:54;;;;;;;11.97;7.40;;;13.40;99.90;;;;;;6137067;23;20386;-71
2021/06/22 00:59:19;;;;;;;14.83;7.03;;;13.40;99.90;;;;;;6136920;23;20275;-71
2021/06/22 01:01:45;;;;;;;9.17;6.80;;;13.30;99.90;;;;;;6126115;23;20185;-72
2021/06/22 01:04:11;;;;;;;7.40;6.23;;;13.50;99.90;;;;;;6137113;23;20174;-71
2021/06/22 01:06:36;;;;;;;10.10;5.67;;;13.40;99.90;;;;;;6136726;23;20194;-71
2021/06/22 01:09:05;;;;;;;9.20;5.83;;;13.40;99.90;;;;;;6136827;23;20589;-71
2021/06/22 01:11:30;;;;;;;16.60;7.43;;;13.40;99.90;;;;;;6150630;23;20185;-71
2021/06/22 01:13:56;;;;;;;8.77;6.30;;;13.40;99.90;;;;;;6126981;23;20563;-70
2021/06/22 01:16:29;;;;;;;7.00;5.20;;;13.40;99.90;;;;;;6136825;23;20159;-70
2021/06/22 01:18:59;;;;;;;8.95;5.25;;;13.40;99.90;;;;;;6150297;23;20183;-71
2021/06/22 01:21:29;;;;;;;6.85;5.20;;;13.30;99.90;;;;;;6136794;23;20155;-71
2021/06/22 01:23:55;;;;;;;5.88;4.80;;;13.40;99.90;;;;;;6126192;23;20166;-71
2021/06/22 01:26:21;;;;;;;9.95;5.15;;;13.40;99.90;;;;;;6136578;23;20222;-71
2021/06/22 01:28:47;;;;;;;7.47;5.10;;;13.40;99.90;;;;;;6136623;23;20162;-71
2021/06/22 01:31:13;;;;;;;5.77;4.30;;;13.40;99.90;;;;;;6150408;23;20166;-70
2021/06/22 01:33:44;;;;;;;9.20;4.70;;;13.30;99.90;;;;;;6150338;23;20159;-70
2021/06/22 01:36:10;;;;;;;9.73;4.75;;;13.30;99.90;;;;;;6136938;23;20143;-70
2021/06/22 01:38:35;;;;;;;11.60;6.30;;;13.40;99.90;;;;;;6127270;23;20714;-71
2021/06/22 01:41:01;;;;;;;8.90;5.40;;;13.40;99.90;;;;;;6137026;23;20562;-71
2021/06/22 01:43:26;;;;;;;5.57;4.07;;;13.50;99.90;;;;;;6150458;23;20625;-71
2021/06/22 01:45:52;;;;;;;10.50;5.47;;;13.40;99.90;;;;;;6136652;23;20187;-71
2021/06/22 01:48:18;;;;;;;8.80;4.73;;;13.50;99.90;;;;;;6136414;23;20376;-71
2021/06/22 01:50:45;;;;;;;12.10;5.37;;;13.50;99.90;;;;;;6136800;23;20154;-71
2021/06/22 01:53:10;;;;;;;13.10;5.60;;;13.40;99.90;;;;;;6127269;23;20186;-71
2021/06/22 01:55:40;;;;;;;7.90;4.80;;;13.50;99.90;;;;;;6137038;23;20465;-71
2021/06/22 01:58:12;;;;;;;7.43;4.22;;;13.60;99.90;;;;;;6136932;23;20563;-70
2021/06/22 02:00:39;;;;;;;7.03;4.70;;;13.60;99.90;;;;;;6136757;23;20543;-70
2021/06/22 02:03:06;;;;;;;6.47;4.43;;;13.80;99.90;;;;;;6151750;23;20250;-70
2021/06/22 02:05:32;;;;;;;9.05;4.80;;;13.90;99.90;;;;;;6139875;23;20273;-71
2021/06/22 02:07:58;;;;;;;8.90;4.40;;;13.90;99.90;;;;;;6140602;23;20562;-73
2021/06/22 02:10:24;;;;;;;9.50;4.40;;;13.90;99.90;;;;;;6154954;23;20570;-73
2021/06/22 02:12:49;;;;;;;8.90;5.55;;;13.90;99.90;;;;;;6156291;23;20165;-72
2021/06/22 02:15:16;;;;;;;9.50;5.83;;;13.90;99.90;;;;;;6139881;23;20159;-72
2021/06/22 02:17:42;;;;;;;7.40;4.03;;;13.70;99.90;;;;;;6140317;23;20166;-72
2021/06/22 02:20:08;;;;;;;10.40;5.10;;;13.80;99.90;;;;;;6153874;23;20508;-67
2021/06/22 02:22:35;;;;;;;9.73;4.85;;;13.80;99.90;;;;;;6140029;23;20186;-72
2021/06/22 02:25:02;;;;;;;8.93;5.38;;;13.80;99.90;;;;;;6142358;23;20186;-73
2021/06/22 02:27:31;;;;;;;8.90;5.50;;;13.80;99.90;;;;;;6139905;23;20154;-73
2021/06/22 02:29:57;;;;;;;9.45;5.22;;;13.70;99.90;;;;;;6140809;23;20626;-73
2021/06/22 02:32:24;;;;;;;9.27;4.75;;;13.80;99.90;;;;;;6140099;23;20230;-73
2021/06/22 02:34:50;;;;;;;6.60;4.70;;;13.90;99.90;;;;;;6139842;23;20242;-73
2021/06/22 02:37:16;;;;;;;13.05;5.30;;;13.90;99.90;;;;;;6130357;23;20162;-70
2021/06/22 02:39:43;;;;;;;8.97;5.13;;;14.10;99.90;;;;;;6139526;23;20158;-70
2021/06/22 02:42:09;;;;;;;7.63;4.72;;;13.80;99.90;;;;;;6153749;23;20159;-68
2021/06/22 02:44:34;;;;;;;5.20;3.70;;;13.80;99.90;;;;;;6153371;23;20173;-68
2021/06/22 02:47:00;;;;;;;7.27;4.07;;;14.20;99.90;;;;;;6139754;23;20161;-69
2021/06/22 02:49:26;;;;;;;7.47;3.77;;;14.10;99.90;;;;;;6139630;23;20390;-68
2021/06/22 02:51:52;;;;;;;13.03;5.20;;;14.00;99.90;;;;;;6153481;23;20221;-68
2021/06/22 02:54:18;;;;;;;5.57;4.20;;;14.00;99.90;;;;;;6139721;23;20155;-68
2021/06/22 02:56:43;;;;;;;8.07;4.50;;;14.10;99.90;;;;;;6153165;23;20178;-69
2021/06/22 02:59:09;;;;;;;8.33;4.40;;;14.00;99.90;;;;;;6139594;23;20626;-68
2021/06/22 03:01:34;;;;;;;7.00;4.43;;;13.90;99.90;;;;;;6139612;23;20506;-69
2021/06/22 03:04:00;;;;;;;8.63;4.17;;;13.80;99.90;;;;;;6128646;23;20245;-69
2021/06/22 03:06:26;;;;;;;6.20;4.17;;;14.00;99.90;;;;;;6152893;23;20183;-69
2021/06/22 03:08:51;;;;;;;7.03;4.10;;;13.80;99.90;;;;;;6139331;23;20449;-68
2021/06/22 03:11:17;;;;;;;8.20;4.47;;;13.80;99.90;;;;;;6139639;23;20151;-69
2021/06/22 03:13:42;;;;;;;6.90;3.97;;;13.90;99.90;;;;;;6139404;23;20617;-69
2021/06/22 03:16:08;;;;;;;9.77;5.53;;;13.90;99.90;;;;;;6137482;23;20218;-73
2021/06/22 03:18:34;;;;;;;6.70;4.20;;;13.90;99.90;;;;;;6137783;23;20221;-73
2021/06/22 03:20:59;;;;;;;9.00;4.10;;;13.90;99.90;;;;;;6138272;23;20159;-73
2021/06/22 03:23:25;;;;;;;8.93;4.30;;;14.10;99.90;;;;;;6151621;23;20159;-72
2021/06/22 03:25:51;;;;;;;8.53;5.23;;;14.20;99.90;;;;;;6136719;23;20186;-73
2021/06/22 03:28:16;;;;;;;7.03;4.00;;;14.20;99.90;;;;;;6151077;23;20582;-72
2021/06/22 03:30:43;;;;;;;10.53;4.23;;;14.40;99.90;;;;;;6137950;23;20242;-73
2021/06/22 03:33:09;;;;;;;7.32;5.55;;;14.50;99.90;;;;;;6151406;23;20162;-73
2021/06/22 03:35:36;;;;;;;7.40;3.67;;;14.40;99.90;;;;;;6137758;23;20155;-73
2021/06/22 03:38:03;;;;;;;11.20;4.60;;;14.70;99.90;;;;;;6151402;23;20167;-73
2021/06/22 03:40:28;;;;;;;8.82;4.20;;;14.60;99.90;;;;;;6151392;23;20167;-73
2021/06/22 03:42:54;;;;;;;8.40;4.60;;;14.90;99.90;;;;;;6137972;23;20261;-72
2021/06/22 03:45:19;;;;;;;6.80;4.83;;;14.80;99.90;;;;;;6151556;23;20261;-73
2021/06/22 03:47:45;;;;;;;6.47;4.00;;;15.00;99.90;;;;;;6137560;23;20174;-73
2021/06/22 03:50:12;;;;;;;10.10;4.60;;;15.10;99.90;;;;;;6137650;23;20578;-72
2021/06/22 03:52:38;;;;;;;9.05;4.47;;;15.00;99.90;;;;;;6137700;23;20162;-69
2021/06/22 03:57:51;;;;;;;11.95;3.85;;;14.50;99.90;;;;;;6137673;23;20565;-73
2021/06/22 04:00:17;;;;;;;7.45;4.10;;;14.40;99.90;;;;;;6136809;23;20169;-72
2021/06/22 04:02:43;;;;;;;8.07;5.13;;;14.40;99.90;;;;;;6137142;23;20469;-72
2021/06/22 04:05:08;;;;;;;9.03;4.43;;;14.50;99.90;;;;;;6137543;23;20179;-72
2021/06/22 04:07:35;;;;;;;9.10;4.23;;;14.50;99.90;;;;;;6137802;23;20466;-72
2021/06/22 04:10:00;;;;;;;9.90;4.95;;;14.60;99.90;;;;;;6137120;23;20677;-72
2021/06/22 04:12:26;;;;;;;7.40;4.67;;;14.70;99.90;;;;;;6151989;23;20610;-72
2021/06/22 04:14:51;;;;;;;11.07;4.83;;;14.80;99.90;;;;;;6137345;23;20193;-72
2021/06/22 04:17:17;;;;;;;9.27;5.10;;;14.80;99.90;;;;;;6138220;23;20159;-72
2021/06/22 04:19:42;;;;;;;9.07;5.30;;;15.10;99.90;;;;;;6138902;23;20155;-72
2021/06/22 04:22:08;;;;;;;10.03;5.60;;;15.00;99.90;;;;;;6154091;23;20189;-72
2021/06/22 04:24:33;;;;;;;6.90;4.87;;;14.80;99.90;;;;;;6156288;23;20234;-72
2021/06/22 04:26:59;;;;;;;8.90;5.60;;;14.90;99.90;;;;;;6139156;23;20242;-73
2021/06/22 04:29:25;;;;;;;11.13;5.00;;;14.90;99.90;;;;;;6137577;23;20175;-72
2021/06/22 04:31:50;;;;;;;6.17;4.37;;;14.70;99.90;;;;;;6137737;23;20582;-72
2021/06/22 04:34:16;;;;;;;9.00;4.97;;;14.80;99.90;;;;;;6137989;23;20481;-74
2021/06/22 04:36:42;;;;;;;7.00;5.82;;;14.90;99.90;;;;;;6138532;23;20177;-71
2021/06/22 04:39:08;;;;;;;9.47;5.93;;;14.90;99.90;;;;;;6137659;23;20470;-72
2021/06/22 04:41:33;;;;;;;5.90;4.13;;;14.80;99.90;;;;;;6151240;23;20170;-69
2021/06/22 04:43:59;;;;;;;10.73;5.17;;;14.90;99.90;;;;;;6128050;23;20514;-69
2021/06/22 04:46:24;;;;;;;7.97;5.17;;;14.90;99.90;;;;;;6137489;23;20582;-70
2021/06/22 04:48:50;;;;;;;7.57;5.00;;;14.80;99.90;;;;;;6139592;23;20159;-70
2021/06/22 04:51:15;;;;;;;7.83;6.17;;;14.60;99.90;;;;;;6129942;23;20242;-70
2021/06/22 04:53:41;;;;;;;10.27;5.30;;;14.50;99.90;;;;;;6138518;23;20158;-72
2021/06/22 04:56:07;;;;;;;9.60;5.50;;;14.40;99.90;;;;;;6138140;23;20158;-71
2021/06/22 04:58:34;;;;;;;9.63;5.90;;;14.30;99.90;;;;;;6129119;23;20163;-71
2021/06/22 05:01:06;;;;;;;11.15;4.82;;;14.50;99.90;;;;;;6138745;23;20695;-67
2021/06/22 05:03:35;;;;;;;8.35;5.65;;;14.30;99.90;;;;;;6139063;23;20155;-67
2021/06/22 05:06:01;;;;;;;6.07;4.82;;;14.60;99.90;;;;;;6137874;23;20175;-68
2021/06/22 05:08:27;;;;;;;6.47;4.20;;;14.50;99.90;;;;;;6138052;23;20217;-68
2021/06/22 05:10:53;;;;;;;9.27;6.33;;;14.50;99.90;;;;;;6138501;23;20161;-69
2021/06/22 05:13:20;;;;;;;4.97;4.07;;;14.70;99.90;;;;;;6137928;23;20155;-69
2021/06/22 05:15:45;;;;;;;8.02;4.53;;;14.80;99.90;;;;;;6138283;23;20186;-69
2021/06/22 05:18:11;;;;;;;7.43;3.50;;;15.50;99.90;;;;;;6137029;23;20167;-69
2021/06/22 05:20:37;;;;;;;8.33;3.90;;;16.30;1.00;;;;;;6137816;23;20281;-69
2021/06/22 05:23:03;;;;;;;7.70;5.10;;;16.60;1.00;;;;;;6137949;23;20185;-69
2021/06/22 05:25:28;;;;;;;7.77;3.67;;;16.80;1.00;;;;;;6137852;23;20187;-69
2021/06/22 05:27:54;;;;;;;5.97;3.93;;;17.90;1.00;;;;;;6127240;23;20861;-69
2021/06/22 05:30:20;;;;;;;10.90;3.83;;;18.40;99.90;;;;;;6151550;23;20410;-69
2021/06/22 05:32:45;;;;;;;4.37;2.90;;;18.10;1.00;;;;;;6138349;23;20154;-69
2021/06/22 05:35:13;;;;;;;8.10;3.20;;;17.50;1.00;;;;;;6151087;23;20474;-69
2021/06/22 05:37:38;;;;;;;9.63;3.00;;;17.10;1.00;;;;;;6150682;23;20475;-69
2021/06/22 05:40:06;;;;;;;4.20;2.43;;;17.20;99.90;;;;;;6150836;23;20446;-73
2021/06/22 05:42:31;;;;;;;4.97;2.63;;;17.50;99.90;;;;;;6137391;23;20222;-72
2021/06/22 05:44:57;;;;;;;6.57;3.10;;;16.80;90.20;;;;;;6137584;23;20429;-72
2021/06/22 05:47:23;;;;;;;7.77;3.50;;;16.20;99.90;;;;;;6137229;23;20151;-73
2021/06/22 05:49:48;;;;;;;7.60;3.33;;;15.90;99.90;;;;;;6137202;23;20175;-73
2021/06/22 05:52:14;;;;;;;7.07;3.63;;;16.10;99.90;;;;;;6136972;23;20644;-73
2021/06/22 05:54:39;;;;;;;5.43;3.00;;;16.40;17.90;;;;;;6150729;23;20562;-73
2021/06/22 05:57:06;;;;;;;8.40;2.93;;;16.70;1.00;;;;;;6150785;23;20163;-73
2021/06/22 05:59:32;;;;;;;8.20;3.50;;;16.70;99.90;;;;;;6137051;23;20214;-72
2021/06/22 06:01:57;;;;;;;4.30;2.50;;;16.40;99.90;;;;;;6136165;23;20390;-72
2021/06/22 06:04:23;;;;;;;5.57;2.70;;;16.40;1.00;;;;;;6136923;23;20387;-72
2021/06/22 06:06:49;;;;;;;7.40;2.67;;;16.40;99.90;;;;;;6137039;23;20281;-73
2021/06/22 06:09:15;;;;;;;8.50;2.73;;;16.30;1.00;;;;;;6137214;23;20155;-73
2021/06/22 06:11:42;;;;;;;5.20;2.80;;;16.90;1.00;;;;;;6137538;23;20161;-73
2021/06/22 06:14:07;;;;;;;6.87;3.60;;;17.20;1.00;;;;;;6150610;23;20399;-74
2021/06/22 06:16:33;;;;;;;6.43;3.20;;;17.80;1.00;;;;;;6150677;23;20489;-72
2021/06/22 06:18:58;;;;;;;5.80;3.50;;;18.30;99.90;;;;;;6135644;23;20165;-67
2021/06/22 06:21:25;;;;;;;7.27;3.13;;;18.10;1.00;;;;;;6136611;23;20156;-67
2021/06/22 06:23:54;;;;;;;7.60;3.17;;;17.60;99.90;;;;;;6136665;23;20173;-68
2021/06/22 06:26:21;;;;;;;5.40;2.70;;;17.70;99.90;;;;;;6126200;23;20728;-69
2021/06/22 06:28:51;;;;;;;4.63;2.70;;;19.60;99.90;;;;;;6136430;23;20397;-69
2021/06/22 06:31:17;;;;;;;4.93;2.73;;;20.30;1.00;;;;;;6126783;23;20422;-69
2021/06/22 06:33:43;;;;;;;5.83;2.80;;;21.10;99.90;;;;;;6136479;23;20394;-70
2021/06/22 06:36:09;;;;;;;4.57;3.40;;;21.00;99.90;;;;;;6136305;23;20956;-70
2021/06/22 06:38:34;;;;;;;8.03;3.00;;;22.80;1.00;;;;;;6136500;23;20166;-70
2021/06/22 06:41:00;;;;;;;7.27;2.57;;;22.20;1.00;;;;;;6136570;23;20485;-70
2021/06/22 06:43:25;;;;;;;5.70;2.90;;;23.30;1.00;;;;;;6136474;23;20170;-68
2021/06/22 06:45:51;;;;;;;4.80;2.40;;;20.80;99.90;;;;;;6135842;23;20187;-68
2021/06/22 06:48:16;;;;;;;8.70;3.40;;;20.40;1.00;;;;;;6135724;23;20182;-68
2021/06/22 06:50:42;;;;;;;5.17;2.83;;;20.50;1.00;;;;;;6138107;23;20162;-68
2021/06/22 06:53:07;;;;;;;8.00;3.57;;;18.50;99.90;;;;;;6138629;23;20555;-66
2021/06/22 06:55:41;;;;;;;7.33;4.57;;;17.20;1.00;;;;;;6138236;23;20581;-64
2021/06/22 06:58:06;;;;;;;9.07;3.50;;;16.50;1.00;;;;;;6138000;23;20143;-66
2021/06/22 07:00:34;;;;;;;5.53;2.90;;;16.30;99.90;;;;;;6138571;23;20425;-65
2021/06/22 07:03:00;;;;;;;8.73;3.60;;;16.30;99.90;;;;;;6128204;23;20234;-68
2021/06/22 07:05:27;;;;;;;3.73;2.80;;;16.50;44.60;;;;;;6151883;23;20441;-66
2021/06/22 07:07:53;;;;;;;6.00;3.23;;;16.50;99.90;;;;;;6138412;23;20664;-65
2021/06/22 07:10:18;;;;;;;8.40;3.90;;;16.90;1.00;;;;;;6137477;23;20425;-66
2021/06/22 07:12:47;;;;;;;6.73;3.70;;;17.60;1.00;;;;;;6128815;23;20155;-70
2021/06/22 07:15:16;;;;;;;9.10;3.60;;;18.00;13.50;;;;;;6127358;23;20144;-69
2021/06/22 07:17:45;;;;;;;5.30;3.37;;;17.80;1.00;;;;;;6138541;23;20444;-74
2021/06/22 07:20:11;;;;;;;9.20;3.20;;;17.60;99.90;;;;;;6137795;23;20830;-68
2021/06/22 07:22:37;;;;;;;6.93;3.50;;;17.60;1.00;;;;;;6127654;23;20413;-68
2021/06/22 07:25:04;;;;;;;5.80;3.40;;;17.50;1.00;;;;;;6128420;23;20465;-68
2021/06/22 07:27:29;;;;;;;5.50;2.90;;;17.50;1.00;;;;;;6138105;23;20730;-71
2021/06/22 07:29:55;;;;;;;4.60;3.53;;;17.20;99.90;;;;;;6138242;23;20427;-69
2021/06/22 07:32:21;;;;;;;7.53;3.20;;;17.30;99.90;;;;;;6138460;23;20155;-69
2021/06/22 07:34:47;;;;;;;7.80;3.57;;;17.90;99.90;;;;;;6138255;23;20458;-71
2021/06/22 07:37:12;;;;;;;8.67;3.23;;;18.60;1.00;;;;;;6128588;23;20186;-71
2021/06/22 07:39:38;;;;;;;4.80;2.97;;;19.80;99.90;;;;;;6137995;23;20159;-70
2021/06/22 07:42:03;;;;;;;9.63;3.47;;;20.60;99.90;;;;;;6151554;23;20167;-67
2021/06/22 07:44:29;;;;;;;5.20;3.00;;;20.30;99.90;;;;;;6137953;23;20805;-70
2021/06/22 07:46:55;;;;;;;6.87;3.77;;;19.70;1.00;;;;;;6151389;23;20435;-70
2021/06/22 07:49:21;;;;;;;5.27;2.63;;;20.20;99.90;;;;;;6138139;23;20166;-75
2021/06/22 07:51:46;;;;;;;7.93;4.90;;;20.70;99.90;;;;;;6138268;23;20194;-72
2021/06/22 07:54:13;;;;;;;6.40;3.67;;;20.60;99.90;;;;;;6138019;23;20162;-72
2021/06/22 07:56:39;;;;;;;4.73;3.13;;;19.60;99.90;;;;;;6136711;23;20496;-72
2021/06/22 07:59:04;;;;;;;5.37;3.53;;;19.00;99.90;;;;;;6137894;23;20437;-69
2021/06/22 08:01:30;;;;;;;6.17;3.07;;;18.80;99.90;;;;;;6137623;23;20233;-69
2021/06/22 08:03:56;;;;;;;5.47;3.33;;;18.50;1.00;;;;;;6138122;23;20229;-70
2021/06/22 08:06:22;;;;;;;6.57;3.07;;;18.60;99.90;;;;;;6138114;23;20645;-71
2021/06/22 08:08:47;;;;;;;4.77;3.10;;;18.50;99.90;;;;;;6137689;23;20159;-70
2021/06/22 08:11:13;;;;;;;7.83;4.03;;;18.50;88.10;;;;;;6138206;23;20151;-69
2021/06/22 08:13:38;;;;;;;5.23;3.07;;;19.00;99.90;;;;;;6137682;23;20555;-71
2021/06/22 08:16:05;;;;;;;7.40;2.87;;;18.90;1.00;;;;;;6151094;23;20194;-70
2021/06/22 08:18:33;;;;;;;5.53;4.10;;;18.70;81.60;;;;;;6151044;23;20162;-66
2021/06/22 08:20:58;;;;;;;5.50;3.30;;;18.70;1.00;;;;;;6137853;23;20395;-67
2021/06/22 08:23:24;;;;;;;8.20;3.70;;;18.80;47.50;;;;;;6151160;23;20498;-69
2021/06/22 08:25:52;;;;;;;7.13;3.00;;;18.90;1.00;;;;;;6137624;23;20197;-68
2021/06/22 08:28:18;;;;;;;5.00;3.07;;;19.10;1.00;;;;;;6150506;23;20171;-68
2021/06/22 08:30:44;;;;;;;6.83;3.60;;;19.30;1.00;;;;;;6151115;23;20415;-68
2021/06/22 08:33:11;;;;;;;3.93;2.80;;;20.00;1.00;;;;;;6137341;23;20148;-67
2021/06/22 08:35:37;;;;;;;6.97;3.40;;;19.70;99.90;;;;;;6151175;23;20399;-69
2021/06/22 08:38:05;;;;;;;7.97;3.63;;;18.80;1.00;;;;;;6137353;23;20401;-69
2021/06/22 08:40:31;;;;;;;6.50;3.50;;;18.40;1.00;;;;;;6137324;23;20210;-66
2021/06/22 08:42:57;;;;;;;6.70;3.77;;;18.50;38.90;;;;;;6151020;23;20398;-69
2021/06/22 08:45:23;;;;;;;7.10;4.27;;;19.00;1.00;;;;;;6137667;23;20469;-73
2021/06/22 08:47:49;;;;;;;6.50;3.40;;;19.00;1.00;;;;;;6137371;23;20395;-72
2021/06/22 08:50:16;;;;;;;4.83;3.30;;;18.20;99.90;;;;;;6150780;23;20686;-74
2021/06/22 08:52:42;;;;;;;7.63;4.17;;;18.00;30.60;;;;;;6137476;23;20406;-73
2021/06/22 08:55:25;;;;;;;5.87;3.40;;;17.70;1.00;;;;;;6137463;23;20442;-72
2021/06/22 08:57:52;;;;;;;6.93;3.53;;;17.90;99.90;;;;;;6137085;23;20381;-70
2021/06/22 09:00:18;;;;;;;5.33;3.20;;;18.30;99.90;;;;;;6137055;23;20825;-69
2021/06/22 09:02:44;;;;;;;5.50;3.90;;;18.80;1.00;;;;;;6127938;23;20398;-71
2021/06/22 09:05:10;;;;;;;6.23;3.37;;;18.60;1.00;;;;;;6150657;23;20430;-71
2021/06/22 09:07:56;;;;;;;7.40;3.90;;;18.60;3.70;;;;;;6127828;23;20159;-72
2021/06/22 09:10:42;;;;;;;7.87;3.80;;;19.10;99.90;;;;;;6137409;23;20522;-67
2021/06/22 09:13:15;;;;;;;4.70;3.20;;;19.20;99.90;;;;;;6126912;23;20407;-70
2021/06/22 09:15:45;;;;;;;5.43;3.10;;;19.80;1.00;;;;;;6137033;23;20754;-71
2021/06/22 09:18:43;;;;;;;7.30;2.80;;;19.70;1.00;;;;;;6150697;23;20402;-72
2021/06/22 09:21:23;;;;;;;5.77;3.20;;;20.40;99.90;;;;;;6126985;23;20826;-68
2021/06/22 09:23:56;;;;;;;5.23;3.33;;;20.30;99.90;;;;;;6137119;23;20664;-69
2021/06/22 09:26:25;;;;;;;4.37;3.17;;;20.60;1.00;;;;;;6136984;23;20445;-66
2021/06/22 09:28:52;;;;;;;4.13;3.50;;;20.40;99.90;;;;;;6136866;23;20395;-68
2021/06/22 09:31:19;;;;;;;4.97;2.87;;;20.00;1.00;;;;;;6137395;23;20414;-63
2021/06/22 09:33:56;;;;;;;5.70;2.90;;;20.10;1.00;;;;;;6137579;23;20386;-66
2021/06/22 09:36:26;;;;;;;4.13;2.80;;;19.90;99.90;;;;;;6137116;23;20378;-65
2021/06/22 09:39:04;;;;;;;8.80;3.23;;;20.30;99.90;;;;;;6127225;23;20379;-64
2021/06/22 09:41:33;;;;;;;5.10;3.23;;;20.50;99.90;;;;;;6126107;23;20410;-65
2021/06/22 09:44:05;;;;;;;6.13;3.20;;;20.60;99.90;;;;;;6137027;23;20815;-64
2021/06/22 09:46:32;;;;;;;4.20;2.93;;;20.80;99.90;;;;;;6127546;23;20415;-64
2021/06/22 09:49:00;;;;;;;6.40;2.50;;;20.30;1.00;;;;;;6136728;23;20401;-67
2021/06/22 09:51:37;;;;;;;3.90;2.70;;;19.60;1.00;;;;;;6127627;23;20398;-66
2021/06/22 09:54:16;;;;;;;5.80;3.00;;;19.80;1.00;;;;;;6150527;23;20522;-66
2021/06/22 09:57:11;;;;;;;5.03;3.40;;;19.90;1.00;;;;;;6137104;23;20383;-66
2021/06/22 09:59:57;;;;;;;5.70;2.87;;;20.10;1.00;;;;;;6137134;23;20417;-70
2021/06/22 10:02:24;;;;;;;6.37;2.70;;;20.10;1.00;;;;;;6137490;23;20391;-70
2021/06/22 10:04:58;;;;;;;6.67;3.13;;;19.80;1.00;;;;;;6136774;23;20888;-69
2021/06/22 10:07:25;;;;;;;7.53;3.73;;;19.80;21.50;;;;;;6136959;23;20371;-66
2021/06/22 10:09:55;;;;;;;6.00;2.73;;;19.60;1.00;;;;;;6136749;23;20387;-70
2021/06/22 10:12:23;;;;;;;4.47;2.77;;;19.20;99.90;;;;;;6125887;23;20426;-70
2021/06/22 10:14:56;;;;;;;7.60;3.20;;;19.50;99.90;;;;;;6136720;23;20684;-67
2021/06/22 10:17:25;;;;;;;6.93;3.40;;;19.40;1.00;;;;;;6137119;23;20375;-68
2021/06/22 10:19:57;;;;;;;4.73;3.30;;;19.80;1.00;;;;;;6136837;23;20394;-72
2021/06/22 10:22:26;;;;;;;5.47;2.53;;;19.70;1.00;;;;;;6136868;23;20469;-71
2021/06/22 10:24:52;;;;;;;8.13;3.60;;;19.50;1.00;;;;;;6151197;23;20418;-69
2021/06/22 10:27:20;;;;;;;5.80;2.67;;;19.80;1.00;;;;;;6138862;23;20401;-71
2021/06/22 10:29:50;;;;;;;8.13;2.50;;;19.50;1.00;;;;;;6138533;23;20391;-70
2021/06/22 10:32:16;;;;;;;3.83;2.70;;;19.70;99.90;;;;;;6138939;23;20382;-68
2021/06/22 10:34:51;;;;;;;3.13;2.43;;;20.00;99.90;;;;;;6138794;23;20453;-69
2021/06/22 10:37:30;;;;;;;4.70;2.67;;;19.60;1.00;;;;;;6138649;23;20381;-69
2021/06/22 10:40:02;;;;;;;7.20;3.07;;;19.60;1.00;;;;;;6138551;23;20397;-69
2021/06/22 10:42:47;;;;;;;6.00;3.37;;;19.40;1.00;;;;;;6138754;23;20390;-73
2021/06/22 10:45:13;;;;;;;5.63;3.20;;;19.90;1.00;;;;;;6152057;23;20422;-69
2021/06/22 10:47:43;;;;;;;4.80;3.07;;;19.80;1.00;;;;;;6138678;23;20481;-70
2021/06/22 10:50:29;;;;;;;6.30;2.77;;;20.00;1.00;;;;;;6138762;23;20382;-73
2021/06/22 10:53:00;;;;;;;5.33;3.70;;;20.30;1.00;;;;;;6138415;23;20369;-75
2021/06/22 10:55:28;;;;;;;5.33;3.87;;;20.20;99.90;;;;;;6151984;23;20445;-71
2021/06/22 10:57:59;;;;;;;8.50;3.10;;;20.10;1.00;;;;;;6138579;23;20414;-71
2021/06/22 11:00:38;;;;;;;4.60;2.73;;;20.00;99.90;;;;;;6138446;23;20706;-70
2021/06/22 11:03:08;;;;;;;9.87;3.20;;;19.30;1.00;;;;;;6127515;23;20402;-71
2021/06/22 11:05:36;;;;;;;8.10;3.40;;;18.60;99.90;;;;;;6151873;23;20427;-73
2021/06/22 11:08:24;;;;;;;5.80;3.00;;;18.90;16.40;;;;;;6127242;23;20909;-72
2021/06/22 11:10:56;;;;;;;5.53;2.70;;;19.00;1.00;;;;;;6121699;23;20398;-71
2021/06/22 11:13:40;;;;;;;5.57;3.30;;;19.60;1.00;;;;;;6128807;23;20529;-69
2021/06/22 11:16:23;;;;;;;7.07;3.40;;;20.30;99.90;;;;;;6138575;23;20375;-71
2021/06/22 11:18:55;;;;;;;4.90;2.67;;;20.50;1.00;;;;;;6128703;23;20386;-69
2021/06/22 11:21:26;;;;;;;7.40;2.90;;;20.10;1.00;;;;;;6128751;23;20390;-68
2021/06/22 11:24:08;;;;;;;5.40;2.60;;;19.90;1.00;;;;;;6138393;23;20398;-67
2021/06/22 11:26:46;;;;;;;10.37;3.60;;;19.50;1.00;;;;;;6127958;23;20848;-69
2021/06/22 11:29:15;;;;;;;6.73;2.87;;;20.00;99.90;;;;;;6138121;23;20409;-73
2021/06/22 11:31:43;;;;;;;5.77;2.90;;;21.00;99.90;;;;;;6138492;23;20723;-71
2021/06/22 11:34:19;;;;;;;6.50;3.17;;;21.40;12.50;;;;;;6138219;23;20387;-71
2021/06/22 11:36:49;;;;;;;3.47;2.70;;;21.10;25.40;;;;;;6137900;23;20386;-73
2021/06/22 11:39:26;;;;;;;5.77;2.67;;;20.90;1.00;;;;;;6138314;23;20402;-74
2021/06/22 11:42:10;;;;;;;6.27;2.70;;;20.50;91.50;;;;;;6138439;23;20378;-70
2021/06/22 11:44:51;;;;;;;6.67;2.27;;;20.30;99.90;;;;;;6137952;23;20428;-69
2021/06/22 11:47:40;;;;;;;4.10;2.63;;;20.60;98.50;;;;;;6138366;23;20390;-70
2021/06/22 11:50:12;;;;;;;6.13;2.90;;;20.30;99.90;;;;;;6121344;23;20390;-74
2021/06/22 11:52:40;;;;;;;6.67;2.83;;;19.80;99.90;;;;;;6138379;23;20393;-66
2021/06/22 11:55:14;;;;;;;8.87;2.67;;;19.40;99.90;;;;;;6137262;23;20417;-68
2021/06/22 11:57:51;;;;;;;5.60;2.17;;;19.50;99.90;;;;;;6137864;23;20402;-68
2021/06/22 12:00:20;;;;;;;6.97;2.87;;;19.40;1.00;;;;;;6138007;23;20395;-69
2021/06/22 12:03:01;;;;;;;5.30;2.90;;;19.50;1.00;;;;;;6138092;23;20370;-75
2021/06/22 12:05:29;;;;;;;5.80;2.60;;;19.40;1.00;;;;;;6151562;23;20509;-75
2021/06/22 12:07:56;;;;;;;7.03;2.50;;;19.80;99.90;;;;;;6137644;23;20402;-72
2021/06/22 12:10:25;;;;;;;4.60;2.20;;;19.30;99.90;;;;;;6137142;23;20401;-70
2021/06/22 12:12:52;;;;;;;7.07;2.90;;;19.70;99.90;;;;;;6137524;23;20849;-71
2021/06/22 12:15:36;;;;;;;3.33;2.50;;;19.70;99.90;;;;;;6137463;23;20442;-69
2021/06/22 12:18:03;;;;;;;7.10;2.30;;;19.80;99.90;;;;;;6137424;23;20379;-71
2021/06/22 12:20:34;;;;;;;6.00;2.77;;;19.90;99.90;;;;;;6137403;23;20695;-71
2021/06/22 12:23:06;;;;;;;3.70;2.57;;;20.20;99.90;;;;;;6137188;23;20379;-69
2021/06/22 12:25:40;;;;;;;7.03;2.30;;;19.40;99.90;;;;;;6126029;23;20438;-67
2021/06/22 12:28:07;;;;;;;4.17;2.43;;;19.20;1.00;;;;;;6137281;23;20463;-67
2021/06/22 12:30:37;;;;;;;7.33;2.80;;;18.70;1.00;;;;;;6137205;23;20685;-67
2021/06/22 12:33:08;;;;;;;4.17;2.33;;;19.20;99.90;;;;;;6125926;23;20403;-67
2021/06/22 12:35:33;;;;;;;6.73;2.10;;;19.60;99.90;;;;;;6137185;23;20818;-67
2021/06/22 12:38:07;;;;;;;6.83;2.80;;;19.30;99.90;;;;;;6150494;23;20402;-67
2021/06/22 12:40:38;;;;;;;4.60;1.93;;;19.30;99.90;;;;;;6127622;23;20151;-67
2021/06/22 12:43:04;;;;;;;8.83;2.77;;;19.50;99.90;;;;;;6137142;23;20392;-73
2021/06/22 12:45:30;;;;;;;4.60;1.90;;;19.30;99.90;;;;;;6150366;23;20518;-68
2021/06/22 12:47:55;;;;;;;3.53;2.23;;;19.60;99.90;;;;;;6136538;23;20409;-66
2021/06/22 12:50:21;;;;;;;5.37;2.20;;;19.20;99.90;;;;;;6136709;23;20199;-66
2021/06/22 12:52:48;;;;;;;6.67;3.10;;;19.30;99.90;;;;;;6136591;23;20618;-67
2021/06/22 12:55:35;;;;;;;4.73;3.60;;;20.00;47.50;;;;;;6137106;23;20163;-69